Henfield, United Kingdom
Current Conditions -  °F | °C
As of 5:50 AM on Friday 28 Nov 2014 (Local Time) from EGKK Reporting Station
Broken Clouds Broken Clouds  
Wind Chill: 50°   Ceiling: 1300
Heat Index: 50°   Visibility: 6mi
Dew Point: 46°   Wind: 8mph
Humidity: 87%   Direction: 80°E
Pressure: 29.56"   Gusts: NA
Location:  50.93°N, 0.27°W
Report Text: EGKK 280550Z 08007KT 9000 BKN013 10/08 Q1001
Loading
Personal Weather Stations






























Interactive Weather Map New forecast layout! Learn more

10-Day Weather Forecast

Advertisements
Track Severe Weather on mobile